Time;durP1;ratioP1;P1;durP2;ratioP2;P2;SDS_P1;SDS_P2;PMS_P1;PMS_P2;Temp;Humidity;BMP_temperature;BMP_pressure;BME280_temperature;BME280_humidity;BME280_pressure;Samples;Min_cycle;Max_cycle;Signal;HPM_P1;HPM_P2
2023/05/05 00:01:33;;;;;;;4.85;3.78;;;;;;;13.42;43.25;99455.38;5025920;28;20046;-74
2023/05/05 00:04:01;;;;;;;5.60;4.45;;;;;;;13.40;43.39;99445.75;5025853;28;20232;-73
2023/05/05 00:06:28;;;;;;;6.47;3.50;;;;;;;13.35;43.36;99442.53;5024590;28;20041;-73
2023/05/05 00:08:55;;;;;;;6.28;4.28;;;;;;;13.21;43.29;99427.47;5025631;28;20042;-73
2023/05/05 00:11:21;;;;;;;7.60;4.15;;;;;;;13.34;43.54;99441.69;5028149;28;20092;-73
2023/05/05 00:13:48;;;;;;;4.35;3.65;;;;;;;13.29;43.77;99442.94;5029448;28;20201;-73
2023/05/05 00:16:15;;;;;;;6.05;4.43;;;;;;;13.27;43.45;99442.19;5029684;28;20097;-73
2023/05/05 00:18:41;;;;;;;5.00;3.38;;;;;;;13.24;43.77;99437.91;5028817;28;20348;-74
2023/05/05 00:21:09;;;;;;;6.47;3.90;;;;;;;13.22;43.84;99430.97;5029488;28;20088;-74
2023/05/05 00:23:36;;;;;;;4.57;3.83;;;;;;;13.21;43.63;99418.63;5029198;28;20301;-73
2023/05/05 00:26:03;;;;;;;5.55;3.95;;;;;;;13.18;43.97;99416.16;5029518;28;20048;-74
2023/05/05 00:28:30;;;;;;;5.43;4.05;;;;;;;13.15;43.85;99411.88;5029258;28;20042;-74
2023/05/05 00:30:57;;;;;;;5.68;4.13;;;;;;;13.12;43.98;99414.75;5028853;28;20080;-74
2023/05/05 00:33:24;;;;;;;5.63;4.10;;;;;;;13.09;44.12;99423.78;5028568;28;20054;-73
2023/05/05 00:35:51;;;;;;;7.30;4.57;;;;;;;13.05;43.80;99419.59;5029291;28;20305;-74
2023/05/05 00:38:19;;;;;;;5.75;3.42;;;;;;;13.02;44.19;99409.16;5029001;28;20042;-73
2023/05/05 00:40:46;;;;;;;6.68;3.40;;;;;;;12.99;44.06;99411.16;5028385;28;20069;-74
2023/05/05 00:43:12;;;;;;;5.35;3.20;;;;;;;12.92;44.17;99405.38;5028864;28;20163;-73
2023/05/05 00:45:41;;;;;;;5.18;3.45;;;;;;;12.88;44.57;99398.56;5029117;28;20054;-73
2023/05/05 00:48:08;;;;;;;5.07;3.33;;;;;;;12.88;44.42;99397.69;5027942;28;20046;-73
2023/05/05 00:50:37;;;;;;;4.90;3.65;;;;;;;12.87;44.37;99406.63;5028526;28;20247;-74
2023/05/05 00:53:05;;;;;;;6.80;4.20;;;;;;;12.80;44.48;99400.84;5027570;28;20192;-74
2023/05/05 00:55:35;;;;;;;4.70;3.65;;;;;;;12.79;44.87;99404.47;5028124;28;20088;-73
2023/05/05 00:58:02;;;;;;;4.68;3.90;;;;;;;12.15;44.78;99307.47;5028409;28;20041;-74
2023/05/05 01:00:30;;;;;;;6.28;4.18;;;;;;;12.70;44.94;99397.91;5027501;28;20199;-73
2023/05/05 01:02:57;;;;;;;5.20;3.78;;;;;;;12.64;45.03;99398.31;5028350;28;20101;-74
2023/05/05 01:05:26;;;;;;;7.93;3.92;;;;;;;12.08;45.09;99306.13;5028213;28;20050;-73
2023/05/05 01:08:12;;;;;;;7.50;4.28;;;;;;;12.62;46.62;99399.34;5028284;28;20108;-74
2023/05/05 01:10:45;;;;;;;5.15;3.78;;;;;;;12.58;45.60;99392.53;5028143;28;20061;-74
2023/05/05 01:13:25;;;;;;;6.68;3.97;;;;;;;12.54;46.44;99394.50;5028101;28;20089;-73
2023/05/05 01:15:59;;;;;;;6.43;4.00;;;;;;;12.51;45.62;99395.56;5028169;28;20041;-73
2023/05/05 01:18:31;;;;;;;;;;;;;;;12.43;47.45;99397.00;5028526;28;20073;-74
2023/05/05 01:21:02;;;;;;;5.93;4.30;;;;;;;12.42;45.63;99403.25;5028250;28;19917;-73
2023/05/05 01:23:47;;;;;;;5.68;4.05;;;;;;;12.43;46.99;99403.16;5027611;28;20099;-74
2023/05/05 01:26:47;;;;;;;6.55;3.92;;;;;;;12.45;47.54;99400.41;5026997;28;20049;-73
2023/05/05 01:29:34;;;;;;;8.30;4.32;;;;;;;12.40;47.48;99398.03;5028289;28;20068;-73
2023/05/05 01:32:06;;;;;;;4.82;3.78;;;;;;;12.35;46.04;99397.47;5028033;28;20038;-73
2023/05/05 01:34:38;;;;;;;5.13;4.00;;;;;;;12.37;46.30;99397.38;5027947;28;20197;-74
2023/05/05 01:37:12;;;;;;;5.63;4.13;;;;;;;12.35;46.99;99393.94;5026854;28;20037;-73
2023/05/05 01:39:41;;;;;;;5.07;3.83;;;;;;;12.32;46.35;99394.13;5027848;28;20054;-73
2023/05/05 01:42:12;;;;;;;6.20;4.07;;;;;;;12.31;46.20;99390.63;5027572;28;20050;-73
2023/05/05 01:44:42;;;;;;;6.43;4.15;;;;;;;12.26;46.69;99392.72;5027911;28;20197;-73
2023/05/05 01:47:12;;;;;;;5.55;4.00;;;;;;;12.24;46.62;99385.78;5027412;28;20205;-73
2023/05/05 01:49:40;;;;;;;4.88;4.18;;;;;;;12.20;46.54;99390.44;5027933;28;20053;-73
2023/05/05 01:52:10;;;;;;;6.88;4.50;;;;;;;12.20;46.57;99393.09;5027586;28;20217;-73
2023/05/05 01:54:38;;;;;;;5.13;3.67;;;;;;;12.18;46.49;99389.66;5027334;28;20034;-73
2023/05/05 01:57:07;;;;;;;5.07;3.88;;;;;;;12.15;46.63;99390.69;5027852;28;20045;-74
2023/05/05 01:59:34;;;;;;;7.93;4.93;;;;;;;12.12;46.74;99387.34;5026386;28;20045;-74
2023/05/05 02:02:02;;;;;;;6.43;4.45;;;;;;;12.09;46.86;99391.06;5027468;28;20096;-73
2023/05/05 02:04:32;;;;;;;5.72;4.43;;;;;;;12.09;47.29;99392.84;5027332;28;20289;-73
2023/05/05 02:07:02;;;;;;;5.60;4.43;;;;;;;12.06;46.61;99385.06;5027062;28;20221;-73
2023/05/05 02:09:29;;;;;;;4.78;3.92;;;;;;;12.02;46.65;99379.09;5027577;28;20186;-73
2023/05/05 02:11:57;;;;;;;5.75;4.40;;;;;;;12.02;46.64;99370.28;5026952;28;20052;-74
2023/05/05 02:14:27;;;;;;;6.82;4.72;;;;;;;11.64;46.71;99312.34;5027455;28;20042;-74
2023/05/05 02:16:56;;;;;;;7.20;4.70;;;;;;;11.97;46.94;99369.66;5026907;28;20049;-73
2023/05/05 02:19:28;;;;;;;5.25;4.30;;;;;;;11.97;46.74;99367.00;5026700;28;20116;-73
2023/05/05 02:21:57;;;;;;;9.23;7.55;;;;;;;11.39;46.55;99289.06;5027071;28;20053;-73
2023/05/05 02:24:24;;;;;;;8.88;6.45;;;;;;;11.91;46.72;99362.06;5026705;28;20065;-74
2023/05/05 02:26:52;;;;;;;6.25;4.97;;;;;;;11.88;46.84;99371.91;5027294;28;20052;-74
2023/05/05 02:29:24;;;;;;;7.05;5.00;;;;;;;11.89;46.87;99368.31;5027198;28;20056;-74
2023/05/05 02:31:55;;;;;;;6.40;4.93;;;;;;;11.90;46.90;99366.53;5025763;28;20048;-73
2023/05/05 02:34:26;;;;;;;5.18;4.45;;;;;;;9.37;46.66;98945.84;5025106;28;20038;-74
2023/05/05 02:36:57;;;;;;;4.90;4.40;;;;;;;11.87;46.77;99366.72;5027098;28;20042;-73
2023/05/05 02:39:30;;;;;;;7.30;4.55;;;;;;;11.83;46.78;99359.88;5026861;28;20049;-74
2023/05/05 02:41:59;;;;;;;6.00;4.13;;;;;;;11.66;46.87;99336.97;5026691;28;20045;-73
2023/05/05 02:44:26;;;;;;;6.40;4.75;;;;;;;11.81;47.05;99361.75;5026619;28;20311;-74
2023/05/05 02:46:54;;;;;;;6.25;4.82;;;;;;;11.81;46.89;99361.75;5026667;28;20045;-73
2023/05/05 02:49:20;;;;;;;6.03;4.13;;;;;;;11.75;47.33;99370.94;5026635;28;20046;-74
2023/05/05 02:51:47;;;;;;;7.07;4.53;;;;;;;11.70;47.38;99366.84;5025481;28;20041;-73
2023/05/05 02:54:15;;;;;;;4.88;4.13;;;;;;;11.69;47.57;99373.13;5026249;28;20096;-74
2023/05/05 02:56:47;;;;;;;7.15;4.70;;;;;;;11.69;47.99;99363.34;5025365;28;20088;-74
2023/05/05 02:59:18;;;;;;;10.07;4.88;;;;;;;11.69;47.53;99365.16;5026727;28;20289;-73
2023/05/05 03:02:00;;;;;;;6.32;4.10;;;;;;;11.69;49.01;99371.31;5026077;28;20041;-74
2023/05/05 03:04:35;;;;;;;5.22;4.28;;;;;;;11.67;48.03;99369.69;5026529;28;20261;-74
2023/05/05 03:07:09;;;;;;;6.13;4.68;;;;;;;11.66;48.64;99373.28;5026572;28;20050;-73
2023/05/05 03:09:43;;;;;;;5.68;4.75;;;;;;;11.48;48.57;99351.34;5026012;28;20049;-74
2023/05/05 03:12:13;;;;;;;5.85;4.03;;;;;;;11.54;48.11;99381.03;5025177;28;20042;-74
2023/05/05 03:14:43;;;;;;;5.97;4.32;;;;;;;11.39;48.54;99360.72;5026447;28;20050;-74
2023/05/05 03:17:12;;;;;;;5.63;3.88;;;;;;;11.53;48.45;99379.31;5026102;28;20308;-73
2023/05/05 03:19:42;;;;;;;8.27;4.47;;;;;;;11.52;48.67;99377.63;5024709;28;20053;-74
2023/05/05 03:22:09;;;;;;;7.53;4.68;;;;;;;11.51;48.43;99380.38;5025813;28;20056;-73
2023/05/05 03:24:37;;;;;;;8.25;4.90;;;;;;;11.50;48.46;99378.66;5025689;28;20041;-73
2023/05/05 03:27:04;;;;;;;6.03;4.57;;;;;;;11.50;48.38;99384.81;5025750;28;20104;-73
2023/05/05 03:29:31;;;;;;;7.32;5.50;;;;;;;11.50;48.66;99384.81;5025735;28;20108;-74
2023/05/05 03:31:59;;;;;;;8.05;5.03;;;;;;;11.14;48.46;99328.59;5025908;28;20052;-73
2023/05/05 03:34:26;;;;;;;9.10;5.63;;;;;;;11.53;48.43;99383.78;5025857;28;20092;-73
2023/05/05 03:36:53;;;;;;;9.57;6.10;;;;;;;9.95;48.65;99161.28;5024920;28;20066;-74
2023/05/05 03:39:20;;;;;;;6.00;4.63;;;;;;;11.51;48.44;99380.38;5025615;28;20302;-73
2023/05/05 03:41:48;;;;;;;6.35;5.43;;;;;;;11.51;48.59;99375.91;5025565;28;20042;-74
2023/05/05 03:44:15;;;;;;;9.38;5.65;;;;;;;11.52;48.40;99382.06;5026929;28;20050;-73
2023/05/05 03:46:41;;;;;;;9.88;5.40;;;;;;;11.54;48.45;99388.16;5029728;28;20037;-73
2023/05/05 03:49:08;;;;;;;8.45;5.07;;;;;;;11.52;48.70;99388.25;5030239;28;20049;-73
2023/05/05 03:51:35;;;;;;;6.75;5.20;;;;;;;11.53;48.72;99384.63;5030054;28;20076;-73
2023/05/05 03:54:02;;;;;;;6.60;5.38;;;;;;;11.52;48.75;99387.38;5028713;28;20064;-74
2023/05/05 03:56:29;;;;;;;7.22;5.93;;;;;;;11.52;48.68;99388.25;5029769;28;20096;-74
2023/05/05 03:58:57;;;;;;;8.23;5.75;;;;;;;11.55;48.71;99392.50;5029944;28;20054;-73
2023/05/05 04:01:23;;;;;;;8.23;5.43;;;;;;;11.54;48.68;99409.38;5029986;28;20042;-73
2023/05/05 04:03:50;;;;;;;9.85;5.35;;;;;;;11.53;48.85;99386.44;5029570;28;20034;-72
2023/05/05 04:06:17;;;;;;;15.88;6.70;;;;;;;11.54;48.88;99393.44;5028541;28;20320;-73
2023/05/05 04:08:44;;;;;;;8.45;5.65;;;;;;;11.55;48.89;99392.50;5029588;28;20050;-73
2023/05/05 04:11:11;;;;;;;8.88;5.15;;;;;;;11.42;48.97;99378.25;5029525;28;20308;-73
2023/05/05 04:13:37;;;;;;;15.55;6.68;;;;;;;11.53;48.98;99400.56;5028346;28;20174;-73
2023/05/05 04:16:07;;;;;;;9.93;5.80;;;;;;;11.53;49.05;99402.34;5028343;28;20250;-73
2023/05/05 04:18:34;;;;;;;7.55;5.45;;;;;;;11.31;49.00;99368.25;5029159;28;20327;-73
2023/05/05 04:21:00;;;;;;;9.45;5.40;;;;;;;11.53;49.07;99405.00;5029022;28;20062;-73
2023/05/05 04:23:27;;;;;;;6.07;5.32;;;;;;;11.10;49.16;99324.41;5029196;28;20073;-74
2023/05/05 04:25:54;;;;;;;9.63;6.30;;;;;;;11.54;49.15;99396.97;5029530;28;20042;-72
2023/05/05 04:28:20;;;;;;;8.98;5.43;;;;;;;11.55;49.26;99403.97;5028042;28;20213;-73
2023/05/05 04:30:47;;;;;;;14.38;7.05;;;;;;;11.55;49.17;99409.28;5028923;28;20042;-74
2023/05/05 04:33:15;;;;;;;6.45;5.63;;;;;;;11.55;49.42;99409.28;5028260;28;20205;-74
2023/05/05 04:35:42;;;;;;;13.13;6.47;;;;;;;11.58;49.26;99418.88;5027947;28;20038;-74
2023/05/05 04:38:09;;;;;;;10.73;6.72;;;;;;;11.58;49.28;99416.22;5029303;28;20069;-73
2023/05/05 04:40:38;;;;;;;8.88;6.57;;;;;;;11.47;49.50;99392.09;5029200;28;20052;-73
2023/05/05 04:43:06;;;;;;;8.30;6.25;;;;;;;11.66;49.24;99418.44;5028922;28;20305;-73
2023/05/05 04:45:33;;;;;;;8.57;6.00;;;;;;;11.66;49.11;99415.78;5028555;28;20113;-73
2023/05/05 04:47:59;;;;;;;10.30;6.95;;;;;;;11.68;49.22;99419.19;5027723;28;20061;-74
2023/05/05 04:50:27;;;;;;;7.40;6.10;;;;;;;11.70;49.31;99434.09;5028554;28;20050;-74
2023/05/05 04:52:55;;;;;;;11.48;6.93;;;;;;;11.72;49.22;99445.47;5029003;28;20042;-74
2023/05/05 04:55:21;;;;;;;7.05;5.72;;;;;;;11.75;49.08;99441.78;5028149;28;20034;-73
2023/05/05 04:57:48;;;;;;;8.07;6.57;;;;;;;11.78;49.17;99447.78;5027136;28;20049;-74
2023/05/05 05:00:15;;;;;;;9.95;6.18;;;;;;;11.79;49.39;99448.63;5028654;28;20360;-73
2023/05/05 05:02:42;;;;;;;9.13;6.88;;;;;;;11.82;49.24;99449.31;5028275;28;20046;-74
2023/05/05 05:05:09;;;;;;;9.07;7.13;;;;;;;11.84;49.28;99451.88;5028713;28;20049;-74
2023/05/05 05:07:37;;;;;;;7.10;6.40;;;;;;;11.83;49.31;99444.84;5028173;28;20045;-73
2023/05/05 05:10:05;;;;;;;10.23;7.30;;;;;;;11.90;49.36;99459.47;5027331;28;20042;-73
2023/05/05 05:12:32;;;;;;;7.72;6.35;;;;;;;11.94;49.34;99460.16;5027250;28;20049;-73
2023/05/05 05:14:58;;;;;;;9.35;6.63;;;;;;;11.98;49.00;99464.31;5028063;28;20092;-73
2023/05/05 05:17:25;;;;;;;12.60;6.57;;;;;;;12.01;49.25;99461.53;5028255;28;20045;-74
2023/05/05 05:19:53;;;;;;;8.02;6.93;;;;;;;12.04;49.06;99459.53;5026925;28;20179;-73
2023/05/05 05:22:19;;;;;;;8.60;6.60;;;;;;;12.06;49.14;99468.28;5027107;28;20038;-74
2023/05/05 05:24:48;;;;;;;9.18;6.47;;;;;;;12.07;49.17;99469.13;5026987;28;20360;-73
2023/05/05 05:27:14;;;;;;;8.15;6.75;;;;;;;12.10;49.11;99469.81;5027874;28;20108;-73
2023/05/05 05:29:42;;;;;;;8.10;6.85;;;;;;;12.12;49.28;99459.09;5028079;28;20052;-74
2023/05/05 05:32:08;;;;;;;8.75;6.22;;;;;;;12.16;49.15;99464.16;5026858;28;20034;-74
2023/05/05 05:34:35;;;;;;;10.20;7.50;;;;;;;12.19;49.03;99469.28;5027138;28;20038;-73
2023/05/05 05:37:02;;;;;;;13.57;8.50;;;;;;;12.21;49.29;99466.53;5026776;28;20230;-74
2023/05/05 05:39:29;;;;;;;14.95;7.00;;;;;;;12.24;49.09;99468.16;5028121;28;20053;-73
2023/05/05 05:41:57;;;;;;;10.85;7.53;;;;;;;12.10;49.20;99445.03;5027518;28;20049;-74
2023/05/05 05:44:23;;;;;;;8.57;6.63;;;;;;;12.08;49.00;99445.13;5027424;28;20064;-73
2023/05/05 05:46:50;;;;;;;13.23;7.88;;;;;;;12.31;49.11;99470.34;5027666;28;20038;-73
2023/05/05 05:49:17;;;;;;;9.48;6.43;;;;;;;12.35;49.12;99476.34;5026573;28;20101;-74
2023/05/05 05:51:43;;;;;;;8.38;6.78;;;;;;;12.38;49.15;99473.50;5027431;28;20052;-73
2023/05/05 05:54:10;;;;;;;10.25;6.70;;;;;;;12.40;49.27;99469.78;5027597;28;20219;-73
2023/05/05 05:56:37;;;;;;;9.02;6.15;;;;;;;12.45;48.76;99465.06;5026389;28;20100;-73
2023/05/05 05:59:06;;;;;;;8.73;6.15;;;;;;;12.51;48.77;99464.69;5027181;28;20286;-73
2023/05/05 06:01:34;;;;;;;12.02;8.45;;;;;;;12.54;48.85;99460.13;5026262;28;20121;-74
2023/05/05 06:04:01;;;;;;;8.60;7.22;;;;;;;12.56;48.59;99464.41;5027547;28;20344;-73
2023/05/05 06:06:27;;;;;;;12.13;7.13;;;;;;;12.62;48.86;99471.13;5026303;28;20034;-73
2023/05/05 06:08:54;;;;;;;11.02;7.68;;;;;;;12.67;48.91;99469.06;5025114;28;20186;-73
2023/05/05 06:11:21;;;;;;;11.02;8.48;;;;;;;12.71;48.89;99479.41;5027484;28;20118;-73
2023/05/05 06:13:48;;;;;;;9.05;7.65;;;;;;;12.74;48.60;99478.34;5026957;28;20038;-73
2023/05/05 06:16:16;;;;;;;10.25;7.65;;;;;;;12.78;48.54;99482.53;5027478;28;20122;-74
2023/05/05 06:18:42;;;;;;;8.07;6.90;;;;;;;12.81;48.56;99475.22;5026872;28;20053;-74
2023/05/05 06:21:09;;;;;;;9.52;7.45;;;;;;;12.86;48.27;99476.75;5026725;28;20038;-73
2023/05/05 06:23:36;;;;;;;7.57;6.65;;;;;;;12.92;48.33;99482.53;5026630;28;20245;-74
2023/05/05 06:26:03;;;;;;;8.82;7.95;;;;;;;12.88;48.18;99459.72;5026783;28;20056;-74
2023/05/05 06:28:29;;;;;;;9.48;6.50;;;;;;;13.09;48.11;99476.13;5027038;28;20086;-74
2023/05/05 06:30:56;;;;;;;10.55;7.32;;;;;;;13.16;48.08;99469.47;5026409;28;20212;-74
2023/05/05 06:33:24;;;;;;;8.13;7.30;;;;;;;13.29;48.12;99472.22;5025314;28;20054;-74
2023/05/05 06:35:51;;;;;;;8.73;6.80;;;;;;;13.42;48.01;99478.47;5026730;28;20034;-73
2023/05/05 06:38:18;;;;;;;10.82;8.60;;;;;;;12.71;47.75;99340.28;5025550;28;20038;-73
2023/05/05 06:40:47;;;;;;;11.73;8.18;;;;;;;13.69;47.71;99474.00;5026662;28;20309;-73
2023/05/05 06:43:14;;;;;;;9.65;7.72;;;;;;;13.87;47.48;99466.59;5026892;28;20038;-74
2023/05/05 06:45:40;;;;;;;9.50;7.50;;;;;;;13.88;47.08;99440.81;5026847;28;20042;-74
2023/05/05 06:48:07;;;;;;;8.57;7.50;;;;;;;14.25;47.09;99464.00;5026282;28;20045;-74
2023/05/05 06:50:35;;;;;;;9.43;7.88;;;;;;;13.87;46.60;99367.19;5026470;28;20179;-74
2023/05/05 06:53:02;;;;;;;10.32;8.00;;;;;;;14.56;46.14;99451.22;5025327;28;20281;-73
2023/05/05 06:55:29;;;;;;;9.82;7.63;;;;;;;14.94;45.69;99478.78;5026702;28;20050;-73
2023/05/05 06:57:56;;;;;;;9.68;7.63;;;;;;;15.26;45.50;99471.13;5026328;28;20069;-73
2023/05/05 07:00:23;;;;;;;12.80;8.23;;;;;;;15.41;44.85;99445.13;5025876;28;20045;-73
2023/05/05 07:02:50;;;;;;;10.55;7.10;;;;;;;15.87;44.78;99471.13;5025056;28;20042;-73
2023/05/05 07:05:17;;;;;;;9.45;7.43;;;;;;;16.23;43.94;99463.00;5024789;28;20045;-73
2023/05/05 07:07:52;;;;;;;13.48;7.53;;;;;;;16.52;43.60;99467.91;5026076;28;20045;-74
2023/05/05 07:10:20;;;;;;;11.43;8.95;;;;;;;16.78;43.00;99474.78;5026382;28;20054;-73
2023/05/05 07:12:46;;;;;;;13.32;8.38;;;;;;;16.91;42.68;99467.47;5026133;28;20052;-73
2023/05/05 07:15:14;;;;;;;13.50;8.45;;;;;;;17.09;42.19;99470.50;5025625;28;20046;-74
2023/05/05 07:17:41;;;;;;;10.00;8.13;;;;;;;17.27;41.86;99466.38;5024829;28;20046;-75
2023/05/05 07:20:09;;;;;;;12.75;8.05;;;;;;;17.15;41.89;99442.38;5025503;28;20053;-74
2023/05/05 07:22:36;;;;;;;9.88;8.40;;;;;;;17.43;41.78;99471.34;5024925;28;20145;-73
2023/05/05 07:25:05;;;;;;;9.05;7.68;;;;;;;17.48;41.59;99466.47;5024703;28;20088;-74
2023/05/05 07:27:32;;;;;;;9.20;8.30;;;;;;;17.75;41.21;99460.69;5025809;28;20034;-74
2023/05/05 07:29:59;;;;;;;8.95;7.60;;;;;;;17.89;41.35;99463.06;5025930;28;20294;-74
2023/05/05 07:32:26;;;;;;;8.98;8.07;;;;;;;18.02;41.42;99448.63;5026133;28;20045;-74
2023/05/05 07:34:52;;;;;;;7.95;7.15;;;;;;;18.17;40.98;99452.69;5024765;28;20038;-75
2023/05/05 07:37:19;;;;;;;9.63;8.38;;;;;;;18.13;40.72;99449.44;5025928;28;20057;-74
2023/05/05 07:39:47;;;;;;;9.70;8.13;;;;;;;18.00;40.92;99447.91;5024811;28;20095;-74
2023/05/05 07:42:15;;;;;;;10.50;7.93;;;;;;;18.08;40.95;99450.78;5025882;28;20038;-73
2023/05/05 07:44:42;;;;;;;10.25;9.25;;;;;;;18.18;41.30;99444.53;5024623;28;20038;-74
2023/05/05 07:47:09;;;;;;;11.02;8.23;;;;;;;18.42;40.69;99438.88;5025295;28;20077;-73
2023/05/05 07:49:35;;;;;;;11.25;7.97;;;;;;;18.46;40.58;99439.47;5025730;28;20046;-74
2023/05/05 07:52:02;;;;;;;12.00;8.32;;;;;;;18.41;40.69;99445.25;5025364;28;20045;-74
2023/05/05 07:54:29;;;;;;;10.88;8.68;;;;;;;18.59;40.47;99451.72;5025420;28;20038;-74
2023/05/05 07:56:56;;;;;;;9.20;7.70;;;;;;;18.81;40.33;99439.13;5025690;28;20197;-74
2023/05/05 07:59:24;;;;;;;12.63;8.32;;;;;;;18.97;40.24;99447.53;5025323;28;20100;-74
2023/05/05 08:01:51;;;;;;;9.73;8.18;;;;;;;18.98;40.31;99438.47;5024424;28;20204;-74
2023/05/05 08:04:18;;;;;;;8.82;7.93;;;;;;;19.14;39.58;99444.19;5025250;28;20049;-74
2023/05/05 08:06:44;;;;;;;10.13;8.35;;;;;;;19.07;40.10;99443.03;5025284;28;20050;-74
2023/05/05 08:09:11;;;;;;;11.02;7.82;;;;;;;19.19;39.93;99441.94;5025682;28;20042;-74
2023/05/05 08:11:38;;;;;;;11.32;7.80;;;;;;;19.26;39.42;99438.72;5025457;28;20049;-74
2023/05/05 08:14:04;;;;;;;10.30;8.13;;;;;;;19.39;39.36;99440.19;5025249;28;20108;-74
2023/05/05 08:16:33;;;;;;;10.00;7.75;;;;;;;19.50;39.35;99433.84;5025668;28;20085;-74
2023/05/05 08:19:00;;;;;;;15.10;7.55;;;;;;;19.48;39.52;99438.50;5025071;28;20265;-73
2023/05/05 08:21:27;;;;;;;9.98;8.18;;;;;;;19.52;39.00;99426.47;5025426;28;20054;-74
2023/05/05 08:23:54;;;;;;;11.20;7.88;;;;;;;19.70;39.15;99426.63;5025450;28;20045;-74
2023/05/05 08:26:21;;;;;;;8.80;7.57;;;;;;;19.86;38.53;99424.28;5025000;28;20104;-73
2023/05/05 08:28:48;;;;;;;8.68;7.78;;;;;;;19.83;38.64;99422.72;5025105;28;20044;-74
2023/05/05 08:31:15;;;;;;;12.75;7.63;;;;;;;19.84;39.05;99426.25;5026249;28;20096;-73
2023/05/05 08:33:44;;;;;;;9.80;7.95;;;;;;;19.67;38.55;99378.53;5028553;28;20164;-74
2023/05/05 08:36:12;;;;;;;10.25;8.95;;;;;;;19.89;38.51;99428.50;5029221;28;20054;-74
2023/05/05 08:38:39;;;;;;;10.57;9.02;;;;;;;19.98;38.73;99420.44;5028643;28;20280;-74
2023/05/05 08:41:09;;;;;;;10.20;8.60;;;;;;;19.92;38.18;99428.22;5029134;28;20195;-74
2023/05/05 08:43:36;;;;;;;11.93;8.90;;;;;;;19.82;39.25;99429.06;5028737;28;20092;-74
2023/05/05 08:46:03;;;;;;;11.75;8.23;;;;;;;19.65;39.24;99426.22;5028363;28;20048;-74
2023/05/05 08:48:33;;;;;;;9.70;7.88;;;;;;;19.77;38.80;99422.41;5027736;28;20045;-74
2023/05/05 08:51:05;;;;;;;8.77;6.93;;;;;;;19.93;38.42;99422.72;5029026;28;20126;-74
2023/05/05 08:53:42;;;;;;;10.57;8.05;;;;;;;20.14;37.60;99423.41;5027646;28;20057;-74
2023/05/05 08:56:11;;;;;;;10.77;7.80;;;;;;;20.10;38.74;99419.28;5028568;28;20042;-73
2023/05/05 08:58:37;;;;;;;17.50;7.70;;;;;;;20.16;38.25;99413.34;5027456;28;20052;-73
2023/05/05 09:01:06;;;;;;;10.65;8.20;;;;;;;20.30;38.20;99405.84;5027364;28;20038;-74
2023/05/05 09:03:35;;;;;;;10.93;7.60;;;;;;;20.41;38.29;99424.50;5028270;28;20053;-73
2023/05/05 09:06:04;;;;;;;12.10;7.55;;;;;;;20.28;38.18;99397.06;5027320;28;20038;-74
2023/05/05 09:08:32;;;;;;;7.65;6.85;;;;;;;20.43;37.89;99420.69;5028370;28;20033;-74
2023/05/05 09:11:00;;;;;;;8.15;7.25;;;;;;;20.39;37.90;99416.56;5027805;28;20209;-74
2023/05/05 09:13:27;;;;;;;9.43;7.40;;;;;;;20.39;38.13;99411.19;5028126;28;20092;-74
2023/05/05 09:15:53;;;;;;;9.40;8.32;;;;;;;20.44;38.05;99408.91;5028086;28;20083;-74
2023/05/05 09:18:20;;;;;;;10.75;8.57;;;;;;;20.52;38.10;99405.50;5028417;28;20072;-73
2023/05/05 09:20:47;;;;;;;8.80;7.78;;;;;;;20.69;37.96;99412.81;5027744;28;20317;-74
2023/05/05 09:23:17;;;;;;;9.82;7.15;;;;;;;20.79;37.67;99413.63;5027925;28;20069;-73
2023/05/05 09:25:45;;;;;;;6.68;5.70;;;;;;;20.86;37.43;99419.25;5027761;28;20309;-74
2023/05/05 09:28:14;;;;;;;6.93;5.47;;;;;;;20.59;37.55;99371.59;5027833;28;20084;-74
2023/05/05 09:30:43;;;;;;;10.55;6.22;;;;;;;20.81;37.41;99416.16;5027759;28;20246;-73
2023/05/05 09:33:10;;;;;;;9.35;6.55;;;;;;;20.76;37.62;99424.69;5028191;28;20046;-73
2023/05/05 09:35:50;;;;;;;8.13;6.63;;;;;;;20.70;36.93;99413.66;5026822;28;20116;-74
2023/05/05 09:38:19;;;;;;;6.88;5.57;;;;;;;20.70;37.96;99408.25;5027919;28;20100;-74
2023/05/05 09:40:47;;;;;;;7.32;6.10;;;;;;;20.73;37.68;99411.50;5027411;28;20174;-74
2023/05/05 09:43:15;;;;;;;8.55;6.20;;;;;;;20.71;37.99;99400.03;5027745;28;20167;-73
2023/05/05 09:45:42;;;;;;;8.60;5.90;;;;;;;20.88;37.47;99394.88;5027288;28;20092;-74
2023/05/05 09:48:22;;;;;;;10.27;7.25;;;;;;;21.03;37.58;99402.34;5027661;28;20088;-74
2023/05/05 09:50:49;;;;;;;9.00;8.10;;;;;;;21.25;37.21;99400.22;5026438;28;20108;-74
2023/05/05 09:53:16;;;;;;;12.52;8.10;;;;;;;21.23;37.57;99404.91;5027328;28;20068;-74
2023/05/05 09:55:54;;;;;;;8.90;8.10;;;;;;;21.27;37.09;99399.06;5027133;28;20114;-73
2023/05/05 09:58:23;;;;;;;8.27;7.38;;;;;;;21.35;37.82;99392.91;5026508;28;20253;-73
2023/05/05 10:00:50;;;;;;;8.63;7.10;;;;;;;21.34;37.51;99372.34;5026289;28;20158;-74
2023/05/05 10:03:17;;;;;;;8.38;7.28;;;;;;;21.53;37.74;99388.38;5027125;28;20101;-73
2023/05/05 10:05:49;;;;;;;10.18;7.78;;;;;;;21.52;36.73;99391.25;5025991;28;20231;-73
2023/05/05 10:08:16;;;;;;;10.70;8.30;;;;;;;21.52;37.10;99402.03;5026045;28;20140;-73
2023/05/05 10:10:47;;;;;;;15.18;8.35;;;;;;;21.47;36.77;99397.09;5027172;28;20088;-73
2023/05/05 10:13:18;;;;;;;10.75;8.13;;;;;;;21.18;36.94;99356.84;5025872;28;20045;-73
2023/05/05 10:15:47;;;;;;;8.45;7.65;;;;;;;21.54;37.34;99382.00;5026764;28;20041;-73
2023/05/05 10:18:15;;;;;;;10.25;7.72;;;;;;;21.71;37.09;99389.25;5026489;28;20252;-73
2023/05/05 10:20:43;;;;;;;10.05;8.60;;;;;;;21.79;36.88;99393.84;5026486;28;20097;-73
2023/05/05 10:23:18;;;;;;;11.98;8.48;;;;;;;21.77;36.98;99356.25;5026487;28;20045;-73
2023/05/05 10:25:52;;;;;;;8.50;7.63;;;;;;;21.96;36.12;99379.53;5027157;28;20144;-72
2023/05/05 10:28:29;;;;;;;9.75;8.40;;;;;;;21.74;37.15;99366.50;5025872;28;20042;-72
2023/05/05 10:30:58;;;;;;;8.65;7.55;;;;;;;21.87;37.31;99374.22;5026616;28;20065;-72
2023/05/05 10:33:39;;;;;;;11.60;8.15;;;;;;;21.87;36.97;99369.69;5026830;28;20049;-72
2023/05/05 10:36:07;;;;;;;8.65;7.40;;;;;;;21.89;37.24;99361.44;5026579;28;20053;-72
2023/05/05 10:38:35;;;;;;;8.05;6.60;;;;;;;21.90;37.10;99366.66;5026845;28;20052;-72
2023/05/05 10:41:03;;;;;;;9.50;8.38;;;;;;;21.98;37.14;99358.63;5025460;28;20033;-71
2023/05/05 10:43:31;;;;;;;9.05;7.43;;;;;;;22.10;37.30;99349.28;5026833;28;20046;-71
2023/05/05 10:45:59;;;;;;;12.35;9.85;;;;;;;21.98;37.04;99328.97;5026587;28;20054;-71
2023/05/05 10:48:33;;;;;;;11.85;6.93;;;;;;;22.09;36.95;99330.53;5026412;28;20037;-73
2023/05/05 10:51:03;;;;;;;;;;;;;;;22.10;35.65;99343.88;5025846;28;20421;-73
2023/05/05 10:53:36;;;;;;;8.68;7.82;;;;;;;22.01;36.77;99347.53;5025114;28;19921;-74
2023/05/05 10:56:10;;;;;;;7.95;7.15;;;;;;;21.90;36.25;99319.97;5026442;28;20096;-75
2023/05/05 10:58:40;;;;;;;11.32;7.47;;;;;;;21.94;36.80;99349.16;5026629;28;20100;-74
2023/05/05 11:01:08;;;;;;;9.50;7.03;;;;;;;21.48;36.97;99269.38;5026038;28;20049;-74
2023/05/05 11:03:35;;;;;;;10.02;6.63;;;;;;;21.88;36.94;99341.69;5025475;28;20092;-74
2023/05/05 11:06:15;;;;;;;7.85;6.55;;;;;;;21.91;36.29;99333.28;5025734;28;20041;-74
2023/05/05 11:08:43;;;;;;;9.98;7.32;;;;;;;22.05;36.58;99337.25;5026209;28;20280;-74
2023/05/05 11:11:11;;;;;;;8.73;7.05;;;;;;;22.10;36.30;99327.69;5025797;28;20041;-74
2023/05/05 11:13:41;;;;;;;7.68;6.68;;;;;;;22.01;36.09;99304.34;5025714;28;20117;-74
2023/05/05 11:16:41;;;;;;;7.57;5.85;;;;;;;22.23;35.57;99334.50;5024800;28;20048;-74
2023/05/05 11:19:40;;;;;;;5.90;5.25;;;;;;;22.32;35.86;99325.47;5024793;28;20124;-74
2023/05/05 11:22:07;;;;;;;9.60;5.97;;;;;;;22.32;35.90;99315.50;5024776;28;20050;-75
2023/05/05 11:24:35;;;;;;;6.63;5.93;;;;;;;22.32;36.10;99311.97;5025776;28;20045;-74
2023/05/05 11:27:02;;;;;;;9.95;6.25;;;;;;;22.31;36.04;99308.41;5025835;28;20297;-73
2023/05/05 11:30:07;;;;;;;12.00;6.95;;;;;;;22.17;35.91;99294.66;5025582;28;20046;-73
2023/05/05 11:32:34;;;;;;;8.38;5.80;;;;;;;22.21;36.28;99302.28;5025796;28;20281;-73
2023/05/05 11:35:02;;;;;;;7.78;5.70;;;;;;;22.36;36.33;99294.44;5025613;28;20065;-73
2023/05/05 11:37:29;;;;;;;8.57;5.43;;;;;;;22.54;36.18;99300.66;5025506;28;20363;-74
2023/05/05 11:40:07;;;;;;;6.35;5.68;;;;;;;22.63;35.45;99291.59;5024686;28;20042;-74